首页
METAR-TAF:

METAR-TAF

机场 :

上海浦东国际机场

上海 / 浦东, 中华人民共和国

纬度: 31-07N, 经度: 121-46E, 海拔: 4米

当前天气观测

该预报发布于44分钟前的00:00 UTC
风速4节,风向南转南东
温度 14°C
湿度 77%
气压 1021 hPa
能见度10公里或以上
1500米以下无云,无积雨云

METAR: ZSPD 150000Z 16002MPS CAVOK 14/10 Q1021 NOSIG

时间: 08:44 (00:44 UTC)

预报

该预报发布于3小时和34分钟前的21:10 UTC
预报有效从15日的 00点(UTC)到 15日的 24点(UTC)
风速8节,风向
能見度: 5000
散云层高于2000英尺
轻雾

TAF: ZSPD 142110Z 1500/1524 17004MPS 5000 BR SCT020 TX19/1506Z TN10/1520Z

超过4000个机场的气象观测和天气预报(METAR&TAF报告)。

可查询的气象台以黄色和红色小点在地图上表示。

将鼠标移到小点上方,可查看气象台名称。

然后点击查看天气观测和预报。

如需切换地图:点击带黑十字的绿色按钮放大地图;点击带横线的绿色按钮缩小地图;或者点击绿色箭头查看邻近地区的地图。


METAR-TAF: